Time;durP1;ratioP1;P1;durP2;ratioP2;P2;SDS_P1;SDS_P2;PMS_P1;PMS_P2;Temp;Humidity;BMP_temperature;BMP_pressure;BME280_temperature;BME280_humidity;BME280_pressure;Samples;Min_cycle;Max_cycle;Signal;HPM_P1;HPM_P2
2023/01/11 00:02:00;;;;;;;0.65;0.65;;;;;;;;;;5032641;28;20053;-91
2023/01/11 00:04:29;;;;;;;0.73;0.73;;;;;;;;;;5032515;28;20111;-91
2023/01/11 00:06:55;;;;;;;0.70;0.70;;;;;;;;;;5032808;28;20104;-91
2023/01/11 00:09:22;;;;;;;1.08;1.08;;;;;;;;;;5032481;28;20045;-91
2023/01/11 00:11:48;;;;;;;1.02;1.02;;;;;;;;;;5032738;28;20045;-91
2023/01/11 00:14:15;;;;;;;0.90;0.90;;;;;;;;;;5036128;28;20053;-91
2023/01/11 00:16:42;;;;;;;1.75;1.65;;;;;;;;;;5036162;28;20049;-91
2023/01/11 00:19:10;;;;;;;0.95;0.95;;;;;;;;;;5035881;28;20049;-91
2023/01/11 00:21:36;;;;;;;2.03;1.92;;;;;;;;;;5035852;28;20490;-91
2023/01/11 00:24:03;;;;;;;1.88;1.77;;;;;;;;;;5035133;28;20045;-91
2023/01/11 00:26:29;;;;;;;0.85;0.85;;;;;;;;;;5035712;28;20053;-91
2023/01/11 00:28:56;;;;;;;0.80;0.80;;;;;;;;;;5036004;28;20049;-91
2023/01/11 00:31:22;;;;;;;1.92;1.88;;;;;;;;;;5035679;28;20053;-91
2023/01/11 00:33:49;;;;;;;0.75;0.75;;;;;;;;;;5035888;28;20046;-91
2023/01/11 00:36:17;;;;;;;1.73;1.63;;;;;;;;;;5035499;28;20095;-92
2023/01/11 00:38:45;;;;;;;3.25;2.42;;;;;;;;;;5035509;28;20057;-91
2023/01/11 00:49:24;;;;;;;0.68;0.65;;;;;;;;;;5035552;28;20477;-91
2023/01/11 00:51:52;;;;;;;1.30;1.20;;;;;;;;;;5035243;28;20107;-91
2023/01/11 00:54:18;;;;;;;0.68;0.68;;;;;;;;;;5034644;28;20057;-91
2023/01/11 00:56:45;;;;;;;1.00;1.00;;;;;;;;;;5035018;28;20053;-91
2023/01/11 00:59:12;;;;;;;0.60;0.60;;;;;;;;;;5035420;28;20107;-91
2023/01/11 01:01:38;;;;;;;0.80;0.80;;;;;;;;;;5035128;28;20061;-91
2023/01/11 01:04:05;;;;;;;1.52;1.42;;;;;;;;;;5034998;28;20515;-91
2023/01/11 01:06:31;;;;;;;3.50;3.33;;;;;;;;;;5034961;28;20457;-91
2023/01/11 01:09:00;;;;;;;1.30;1.30;;;;;;;;;;5035303;28;20053;-91
2023/01/11 01:11:27;;;;;;;1.05;1.05;;;;;;;;;;5034986;28;20076;-91
2023/01/11 01:16:37;;;;;;;0.98;0.98;;;;;;;;;;5034989;28;20062;-91
2023/01/11 01:19:04;;;;;;;3.13;3.03;;;;;;;;;;5035092;28;20414;-90
2023/01/11 01:21:30;;;;;;;2.20;2.10;;;;;;;;;;5034965;28;20108;-91
2023/01/11 01:23:57;;;;;;;2.63;2.53;;;;;;;;;;5034422;28;20823;-91
2023/01/11 01:26:25;;;;;;;1.33;1.33;;;;;;;;;;5034635;28;20560;-91
2023/01/11 01:28:51;;;;;;;0.95;0.95;;;;;;;;;;5034534;28;20045;-91
2023/01/11 01:31:18;;;;;;;1.25;1.25;;;;;;;;;;5035023;28;20104;-89
2023/01/11 01:33:44;;;;;;;1.52;1.42;;;;;;;;;;5035002;28;20056;-92
2023/01/11 01:36:11;;;;;;;2.42;2.22;;;;;;;;;;5034672;28;20045;-90
2023/01/11 01:38:37;;;;;;;1.98;1.88;;;;;;;;;;5034741;28;20465;-90
2023/01/11 01:41:04;;;;;;;1.48;1.48;;;;;;;;;;5034719;28;20049;-90
2023/01/11 01:43:49;;;;;;;1.33;1.30;;;;;;;;;;5034641;28;20609;-90
2023/01/11 01:46:16;;;;;;;1.13;1.13;;;;;;;;;;5034390;28;20049;-90
2023/01/11 01:48:43;;;;;;;1.52;0.95;;;;;;;;;;5034611;28;20050;-90
2023/01/11 01:51:13;;;;;;;0.60;0.60;;;;;;;;;;5034204;28;20054;-90
2023/01/11 01:53:41;;;;;;;1.58;1.58;;;;;;;;;;5034471;28;20107;-90
2023/01/11 01:56:10;;;;;;;0.75;0.75;;;;;;;;;;5034252;28;20053;-90
2023/01/11 01:58:39;;;;;;;1.77;1.67;;;;;;;;;;5034314;28;20103;-90
2023/01/11 02:03:48;;;;;;;1.65;1.55;;;;;;;;;;5033030;28;20052;-90
2023/01/11 02:06:14;;;;;;;1.83;1.73;;;;;;;;;;5034167;28;20183;-90
2023/01/11 02:08:43;;;;;;;1.05;1.05;;;;;;;;;;5034036;28;20057;-90
2023/01/11 02:13:51;;;;;;;0.50;0.50;;;;;;;;;;5033058;28;20096;-90
2023/01/11 02:16:19;;;;;;;0.63;0.63;;;;;;;;;;5033648;28;20072;-90
2023/01/11 02:18:46;;;;;;;1.05;0.95;;;;;;;;;;5033604;28;20099;-90
2023/01/11 02:21:20;;;;;;;1.10;1.10;;;;;;;;;;5033547;28;20049;-90
2023/01/11 02:23:58;;;;;;;0.47;0.47;;;;;;;;;;5033878;28;20046;-90
2023/01/11 02:26:51;;;;;;;0.68;0.68;;;;;;;;;;5033603;28;20096;-90
2023/01/11 02:29:24;;;;;;;1.58;1.48;;;;;;;;;;5033827;28;20052;-90
2023/01/11 02:31:53;;;;;;;1.02;1.02;;;;;;;;;;5033535;28;20562;-90
2023/01/11 02:34:25;;;;;;;1.20;1.20;;;;;;;;;;5033349;28;20057;-90
2023/01/11 02:36:57;;;;;;;0.70;0.70;;;;;;;;;;5033264;28;20041;-90
2023/01/11 02:39:29;;;;;;;0.68;0.68;;;;;;;;;;5033329;28;20095;-90
2023/01/11 02:45:02;;;;;;;0.20;0.20;;;;;;;;;;5033413;28;20140;-90
2023/01/11 02:47:34;;;;;;;1.67;1.58;;;;;;;;;;5033500;28;20052;-91
2023/01/11 02:50:04;;;;;;;0.32;0.32;;;;;;;;;;5033323;28;20053;-91
2023/01/11 02:52:34;;;;;;;0.57;0.57;;;;;;;;;;5033225;28;20052;-91
2023/01/11 02:55:01;;;;;;;1.70;1.60;;;;;;;;;;5033131;28;20065;-91
2023/01/11 02:57:28;;;;;;;1.15;1.15;;;;;;;;;;5033479;28;20111;-91
2023/01/11 02:59:57;;;;;;;0.38;0.38;;;;;;;;;;5033139;28;20055;-91
2023/01/11 03:02:24;;;;;;;4.35;4.20;;;;;;;;;;5033373;28;20099;-90
2023/01/11 03:04:50;;;;;;;0.73;0.73;;;;;;;;;;5033446;28;20053;-91
2023/01/11 03:07:22;;;;;;;0.40;0.40;;;;;;;;;;5033347;28;20046;-91
2023/01/11 03:09:56;;;;;;;2.58;2.45;;;;;;;;;;5033728;28;20099;-91
2023/01/11 03:12:53;;;;;;;0.88;0.88;;;;;;;;;;5033477;28;20111;-91
2023/01/11 03:15:37;;;;;;;0.80;0.80;;;;;;;;;;5033423;28;20057;-91
2023/01/11 03:18:13;;;;;;;1.27;1.27;;;;;;;;;;5002757;28;20049;-90
2023/01/11 03:20:41;;;;;;;0.55;0.55;;;;;;;;;;5033066;28;20099;-90
2023/01/11 03:23:12;;;;;;;1.13;1.13;;;;;;;;;;5032938;28;20493;-90
2023/01/11 03:25:42;;;;;;;1.75;1.65;;;;;;;;;;5033210;28;20127;-90
2023/01/11 03:28:11;;;;;;;7.68;1.45;;;;;;;;;;5032830;28;20049;-90
2023/01/11 03:30:41;;;;;;;0.98;0.98;;;;;;;;;;5033057;28;20045;-90
2023/01/11 03:33:11;;;;;;;0.85;0.80;;;;;;;;;;5032683;28;20050;-90
2023/01/11 03:35:40;;;;;;;3.15;1.77;;;;;;;;;;5033138;28;20050;-90
2023/01/11 03:38:09;;;;;;;1.05;1.05;;;;;;;;;;5032622;28;20046;-90
2023/01/11 03:40:38;;;;;;;1.08;1.08;;;;;;;;;;5033166;28;20460;-90
2023/01/11 03:43:11;;;;;;;2.05;1.95;;;;;;;;;;5032723;28;20049;-90
2023/01/11 03:45:39;;;;;;;1.30;1.25;;;;;;;;;;5033106;28;20053;-91
2023/01/11 03:48:08;;;;;;;0.52;0.52;;;;;;;;;;5036075;28;20503;-90
2023/01/11 03:50:36;;;;;;;0.43;0.43;;;;;;;;;;5036730;28;20107;-90
2023/01/11 03:53:05;;;;;;;0.80;0.75;;;;;;;;;;5036699;28;20057;-90
2023/01/11 03:55:34;;;;;;;0.93;0.93;;;;;;;;;;5036203;28;20057;-90
2023/01/11 03:58:00;;;;;;;0.50;0.50;;;;;;;;;;5036678;28;20053;-90
2023/01/11 04:00:28;;;;;;;1.42;1.42;;;;;;;;;;5036714;28;20410;-90
2023/01/11 04:02:54;;;;;;;1.27;1.17;;;;;;;;;;5036264;28;20556;-90
2023/01/11 04:05:21;;;;;;;0.82;0.82;;;;;;;;;;5036282;28;20053;-90
2023/01/11 04:07:49;;;;;;;0.82;0.82;;;;;;;;;;5036492;28;20049;-90
2023/01/11 04:10:15;;;;;;;1.60;1.60;;;;;;;;;;5036101;28;20050;-90
2023/01/11 04:12:42;;;;;;;0.80;0.80;;;;;;;;;;5036294;28;20103;-90
2023/01/11 04:15:09;;;;;;;0.70;0.70;;;;;;;;;;5036018;28;20099;-90
2023/01/11 04:17:35;;;;;;;1.05;1.05;;;;;;;;;;5036252;28;20061;-90
2023/01/11 04:20:02;;;;;;;0.50;0.50;;;;;;;;;;5035810;28;20046;-90
2023/01/11 04:22:28;;;;;;;1.67;1.65;;;;;;;;;;5035778;28;20751;-91
2023/01/11 04:24:56;;;;;;;1.00;1.00;;;;;;;;;;5035738;28;20057;-90
2023/01/11 04:27:23;;;;;;;0.85;0.85;;;;;;;;;;5036192;28;20049;-90
2023/01/11 04:29:49;;;;;;;0.30;0.30;;;;;;;;;;5036080;28;20049;-89
2023/01/11 04:32:16;;;;;;;0.35;0.35;;;;;;;;;;5036047;28;20567;-90
2023/01/11 04:34:42;;;;;;;0.40;0.40;;;;;;;;;;5036410;28;20053;-90
2023/01/11 04:37:10;;;;;;;0.73;0.73;;;;;;;;;;5035801;28;20100;-90
2023/01/11 04:39:37;;;;;;;0.85;0.85;;;;;;;;;;5035522;28;20049;-90
2023/01/11 04:42:19;;;;;;;0.13;0.13;;;;;;;;;;5035809;28;20103;-90
2023/01/11 04:44:46;;;;;;;0.47;0.47;;;;;;;;;;5035761;28;20049;-90
2023/01/11 04:47:13;;;;;;;0.43;0.43;;;;;;;;;;5035301;28;20498;-90
2023/01/11 04:49:40;;;;;;;0.70;0.70;;;;;;;;;;5035249;28;20104;-90
2023/01/11 04:52:06;;;;;;;1.75;1.73;;;;;;;;;;5035515;28;20128;-90
2023/01/11 04:54:32;;;;;;;0.32;0.32;;;;;;;;;;5035290;28;20164;-89
2023/01/11 04:56:59;;;;;;;0.38;0.38;;;;;;;;;;5034923;28;20053;-90
2023/01/11 04:59:27;;;;;;;0.38;0.38;;;;;;;;;;5034541;28;20362;-90
2023/01/11 05:01:53;;;;;;;0.70;0.70;;;;;;;;;;5035057;28;20053;-90
2023/01/11 05:04:20;;;;;;;1.58;1.52;;;;;;;;;;5035316;28;20417;-90
2023/01/11 05:06:46;;;;;;;0.70;0.70;;;;;;;;;;5035000;28;20041;-90
2023/01/11 05:09:14;;;;;;;0.90;0.90;;;;;;;;;;5035247;28;20057;-89
2023/01/11 05:11:41;;;;;;;0.47;0.47;;;;;;;;;;5035017;28;20119;-90
2023/01/11 05:14:07;;;;;;;1.20;1.20;;;;;;;;;;5035107;28;20053;-90
2023/01/11 05:16:35;;;;;;;1.52;1.42;;;;;;;;;;5035068;28;20095;-89
2023/01/11 05:19:02;;;;;;;2.33;2.22;;;;;;;;;;5034827;28;20103;-89
2023/01/11 05:21:30;;;;;;;0.73;0.73;;;;;;;;;;5034941;28;20049;-90
2023/01/11 05:23:57;;;;;;;0.90;0.90;;;;;;;;;;5034591;28;20060;-89
2023/01/11 05:26:26;;;;;;;0.98;0.98;;;;;;;;;;5034586;28;20555;-90
2023/01/11 05:28:52;;;;;;;0.82;0.82;;;;;;;;;;5034597;28;20493;-90
2023/01/11 05:31:19;;;;;;;0.75;0.75;;;;;;;;;;5034959;28;20053;-90
2023/01/11 05:33:47;;;;;;;0.43;0.43;;;;;;;;;;5034368;28;20057;-89
2023/01/11 05:36:15;;;;;;;0.30;0.28;;;;;;;;;;5034563;28;20049;-89
2023/01/11 05:38:41;;;;;;;0.65;0.65;;;;;;;;;;5034444;28;20512;-89
2023/01/11 05:41:09;;;;;;;0.40;0.40;;;;;;;;;;5034245;28;20552;-89
2023/01/11 05:45:27;;;;;;;0.77;0.77;;;;;;;;;;5034261;28;20493;-89
2023/01/11 05:46:21;;;;;;;2.30;1.98;;;;;;;;;;5033978;28;20046;-88
2023/01/11 05:48:49;;;;;;;1.30;1.20;;;;;;;;;;5034158;28;20055;-89
2023/01/11 05:51:16;;;;;;;0.60;0.60;;;;;;;;;;5033851;28;20689;-88
2023/01/11 05:53:43;;;;;;;1.30;1.27;;;;;;;;;;5033782;28;20042;-89
2023/01/11 05:56:09;;;;;;;1.73;1.70;;;;;;;;;;5033791;28;20053;-89
2023/01/11 05:58:36;;;;;;;0.40;0.40;;;;;;;;;;5033663;28;20072;-88
2023/01/11 06:01:02;;;;;;;0.82;0.82;;;;;;;;;;5033599;28;20485;-88
2023/01/11 06:03:29;;;;;;;5.57;1.38;;;;;;;;;;5033512;28;20629;-88
2023/01/11 06:05:58;;;;;;;0.75;0.75;;;;;;;;;;5033387;28;20053;-88
2023/01/11 06:08:24;;;;;;;1.98;1.88;;;;;;;;;;5033616;28;20124;-88
2023/01/11 06:10:51;;;;;;;2.70;2.60;;;;;;;;;;5032538;28;20448;-88
2023/01/11 06:13:26;;;;;;;1.05;1.05;;;;;;;;;;5033567;28;20049;-88
2023/01/11 06:15:53;;;;;;;1.25;1.23;;;;;;;;;;5033677;28;20041;-88
2023/01/11 06:18:19;;;;;;;0.40;0.40;;;;;;;;;;5033649;28;20049;-88
2023/01/11 06:20:48;;;;;;;0.75;0.68;;;;;;;;;;5033698;28;20049;-88
2023/01/11 06:23:16;;;;;;;1.25;1.20;;;;;;;;;;5036221;28;20096;-88
2023/01/11 06:25:42;;;;;;;1.30;1.20;;;;;;;;;;5026522;28;20119;-92
2023/01/11 06:28:09;;;;;;;0.77;0.75;;;;;;;;;;5019042;28;20099;-89
2023/01/11 06:30:35;;;;;;;0.98;0.98;;;;;;;;;;5034496;28;20100;-89
2023/01/11 06:33:04;;;;;;;1.95;1.85;;;;;;;;;;5035150;28;20072;-88
2023/01/11 06:35:31;;;;;;;2.17;1.98;;;;;;;;;;5034772;28;20088;-88
2023/01/11 06:37:57;;;;;;;0.98;0.98;;;;;;;;;;5034152;28;20107;-88
2023/01/11 06:40:25;;;;;;;0.38;0.38;;;;;;;;;;5035313;28;20095;-89
2023/01/11 06:42:52;;;;;;;0.75;0.75;;;;;;;;;;5043432;28;20114;-89
2023/01/11 06:45:18;;;;;;;1.25;1.20;;;;;;;;;;5055368;28;20049;-88
2023/01/11 06:47:45;;;;;;;1.02;1.02;;;;;;;;;;5054116;28;20485;-89
2023/01/11 06:50:11;;;;;;;4.47;3.00;;;;;;;;;;5054152;28;20052;-87
2023/01/11 06:52:38;;;;;;;2.75;2.05;;;;;;;;;;5052592;28;20106;-88
2023/01/11 06:55:05;;;;;;;1.25;1.15;;;;;;;;;;5052193;28;20766;-88
2023/01/11 06:57:33;;;;;;;2.97;1.38;;;;;;;;;;5048253;28;20049;-88
2023/01/11 06:59:59;;;;;;;2.22;2.13;;;;;;;;;;5032926;28;20056;-88
2023/01/11 07:02:26;;;;;;;2.30;2.20;;;;;;;;;;5032843;28;20413;-88
2023/01/11 07:04:53;;;;;;;1.85;1.75;;;;;;;;;;5033212;28;20045;-88
2023/01/11 07:07:19;;;;;;;1.60;1.50;;;;;;;;;;5032767;28;20049;-88
2023/01/11 07:09:46;;;;;;;1.08;0.98;;;;;;;;;;5032915;28;20054;-88
2023/01/11 07:12:12;;;;;;;0.82;0.82;;;;;;;;;;5033153;28;20053;-90
2023/01/11 07:14:40;;;;;;;2.13;1.98;;;;;;;;;;5032863;28;20045;-87
2023/01/11 07:17:06;;;;;;;0.47;0.47;;;;;;;;;;5032852;28;20050;-88
2023/01/11 07:19:33;;;;;;;2.40;1.45;;;;;;;;;;5032952;28;20091;-87
2023/01/11 07:21:59;;;;;;;1.85;1.75;;;;;;;;;;5034846;28;20123;-88
2023/01/11 07:24:26;;;;;;;3.28;3.08;;;;;;;;;;5037125;28;20049;-90
2023/01/11 07:26:54;;;;;;;0.90;0.90;;;;;;;;;;5036841;28;20099;-90
2023/01/11 07:29:20;;;;;;;1.55;1.45;;;;;;;;;;5037155;28;20255;-91
2023/01/11 07:31:48;;;;;;;4.90;2.20;;;;;;;;;;5036847;28;20061;-91
2023/01/11 07:34:15;;;;;;;2.00;1.90;;;;;;;;;;5037019;28;20050;-91
2023/01/11 07:36:41;;;;;;;3.55;2.72;;;;;;;;;;5037035;28;20049;-90
2023/01/11 07:39:08;;;;;;;4.57;3.90;;;;;;;;;;5036458;28;20103;-90
2023/01/11 07:44:18;;;;;;;;;;;;;;;;;;5037025;28;20508;-90
2023/01/11 07:46:45;;;;;;;3.55;3.35;;;;;;;;;;5036822;28;19921;-91
2023/01/11 07:49:12;;;;;;;4.80;4.60;;;;;;;;;;5036383;28;20053;-90
2023/01/11 07:51:39;;;;;;;3.25;2.83;;;;;;;;;;5036381;28;20049;-91
2023/01/11 07:54:05;;;;;;;7.13;5.32;;;;;;;;;;5036699;28;20078;-90
2023/01/11 07:56:32;;;;;;;3.10;2.90;;;;;;;;;;5036144;28;20057;-90
2023/01/11 07:58:59;;;;;;;3.60;2.60;;;;;;;;;;5036321;28;20050;-90
2023/01/11 08:01:25;;;;;;;3.75;3.47;;;;;;;;;;5036241;28;20053;-90
2023/01/11 08:03:51;;;;;;;3.97;3.63;;;;;;;;;;5036300;28;20072;-90
2023/01/11 08:06:19;;;;;;;3.03;2.83;;;;;;;;;;5036232;28;20045;-89
2023/01/11 08:08:46;;;;;;;2.55;2.38;;;;;;;;;;5036244;28;20460;-89
2023/01/11 08:16:40;;;;;;;6.53;6.18;;;;;;;;;;5035706;28;20425;-89
2023/01/11 08:19:07;;;;;;;4.03;3.72;;;;;;;;;;5048341;28;20497;-89
2023/01/11 08:21:35;;;;;;;3.13;2.63;;;;;;;;;;5055443;28;20049;-89
2023/01/11 08:24:01;;;;;;;3.50;3.28;;;;;;;;;;5055075;28;20041;-89
2023/01/11 08:26:28;;;;;;;7.38;5.95;;;;;;;;;;5055094;28;20045;-89
2023/01/11 08:28:54;;;;;;;3.60;3.33;;;;;;;;;;5055357;28;20413;-89
2023/01/11 08:31:21;;;;;;;2.22;2.05;;;;;;;;;;5055185;28;20048;-89
2023/01/11 08:33:48;;;;;;;6.90;6.35;;;;;;;;;;5054248;28;20048;-89
2023/01/11 08:36:15;;;;;;;6.28;5.18;;;;;;;;;;5055001;28;20049;-89
2023/01/11 08:38:43;;;;;;;3.50;2.47;;;;;;;;;;5054954;28;20091;-90
2023/01/11 08:41:10;;;;;;;2.75;2.60;;;;;;;;;;5054840;28;20707;-89
2023/01/11 08:43:37;;;;;;;3.25;3.00;;;;;;;;;;5054971;28;20114;-89
2023/01/11 08:46:03;;;;;;;5.35;4.95;;;;;;;;;;5055352;28;20110;-90
2023/01/11 08:48:30;;;;;;;3.80;3.58;;;;;;;;;;5055131;28;20044;-89
2023/01/11 08:50:56;;;;;;;3.25;3.05;;;;;;;;;;5054921;28;20049;-89
2023/01/11 08:53:23;;;;;;;4.07;2.80;;;;;;;;;;5055122;28;20056;-89
2023/01/11 08:55:51;;;;;;;5.55;5.28;;;;;;;;;;5054576;28;20464;-89
2023/01/11 08:58:17;;;;;;;2.72;2.60;;;;;;;;;;5054794;28;20060;-89
2023/01/11 09:00:44;;;;;;;2.88;2.67;;;;;;;;;;5054566;28;20485;-89
2023/01/11 09:03:11;;;;;;;2.70;2.50;;;;;;;;;;5054791;28;20459;-89
2023/01/11 09:05:38;;;;;;;3.47;3.33;;;;;;;;;;5054761;28;20048;-89
2023/01/11 09:08:05;;;;;;;5.63;4.65;;;;;;;;;;5053343;28;20045;-89
2023/01/11 09:10:31;;;;;;;4.80;4.43;;;;;;;;;;5034730;28;20416;-89
2023/01/11 09:12:59;;;;;;;6.60;5.97;;;;;;;;;;5034982;28;20049;-89
2023/01/11 09:15:26;;;;;;;5.03;4.53;;;;;;;;;;5054462;28;20052;-89
2023/01/11 09:17:53;;;;;;;6.00;5.68;;;;;;;;;;5054460;28;20099;-91
2023/01/11 09:20:19;;;;;;;5.82;2.83;;;;;;;;;;5054458;28;20091;-89
2023/01/11 09:22:46;;;;;;;12.65;4.40;;;;;;;;;;5054071;28;20048;-89
2023/01/11 09:25:13;;;;;;;5.35;4.75;;;;;;;;;;5035769;28;20049;-90
2023/01/11 09:27:42;;;;;;;3.58;3.35;;;;;;;;;;5034177;28;20472;-89
2023/01/11 09:30:11;;;;;;;4.15;3.85;;;;;;;;;;5034273;28;20061;-89
2023/01/11 09:32:38;;;;;;;3.22;3.03;;;;;;;;;;5034510;28;20049;-90
2023/01/11 09:35:05;;;;;;;4.50;3.85;;;;;;;;;;5050753;28;20048;-89
2023/01/11 09:37:31;;;;;;;2.30;2.20;;;;;;;;;;5054430;28;20048;-90
2023/01/11 09:40:00;;;;;;;1.73;1.63;;;;;;;;;;5054225;28;20052;-90
2023/01/11 09:42:31;;;;;;;7.38;3.80;;;;;;;;;;5054072;28;20059;-90
2023/01/11 09:45:01;;;;;;;6.30;3.40;;;;;;;;;;5053807;28;20550;-89
2023/01/11 09:47:32;;;;;;;5.10;3.72;;;;;;;;;;5054418;28;20060;-89
2023/01/11 09:50:01;;;;;;;3.10;2.90;;;;;;;;;;5053942;28;20045;-90
2023/01/11 09:52:31;;;;;;;5.80;5.40;;;;;;;;;;5054016;28;20056;-90
2023/01/11 09:54:58;;;;;;;5.18;4.07;;;;;;;;;;5053438;28;20608;-89
2023/01/11 09:57:32;;;;;;;4.30;4.05;;;;;;;;;;5054095;28;20061;-90
2023/01/11 10:00:03;;;;;;;5.55;4.63;;;;;;;;;;5053988;28;20048;-90
2023/01/11 10:02:37;;;;;;;5.53;5.13;;;;;;;;;;5053728;28;20049;-90
2023/01/11 10:05:30;;;;;;;5.57;4.70;;;;;;;;;;5053659;28;20056;-91
2023/01/11 10:08:05;;;;;;;4.63;2.35;;;;;;;;;;5053447;28;20056;-91
2023/01/11 10:10:42;;;;;;;4.10;3.80;;;;;;;;;;5053520;28;20555;-91
2023/01/11 10:13:13;;;;;;;4.57;4.38;;;;;;;;;;5053901;28;20412;-90
2023/01/11 10:15:44;;;;;;;1.48;1.45;;;;;;;;;;5053761;28;20048;-90
2023/01/11 10:18:21;;;;;;;3.08;2.95;;;;;;;;;;5053586;28;20060;-91
2023/01/11 10:20:50;;;;;;;2.50;2.38;;;;;;;;;;5053646;28;20171;-91
2023/01/11 10:23:23;;;;;;;4.20;3.80;;;;;;;;;;5053169;28;20053;-91
2023/01/11 10:25:54;;;;;;;5.18;4.30;;;;;;;;;;5053662;28;20049;-90
2023/01/11 10:28:26;;;;;;;1.98;1.88;;;;;;;;;;5053617;28;20071;-91
2023/01/11 10:31:06;;;;;;;1.88;1.77;;;;;;;;;;5053633;28;20076;-91
2023/01/11 10:34:04;;;;;;;1.98;1.88;;;;;;;;;;5053328;28;20063;-91
2023/01/11 10:36:50;;;;;;;3.42;3.28;;;;;;;;;;5053673;28;20055;-90
2023/01/11 10:39:38;;;;;;;2.03;1.92;;;;;;;;;;5053290;28;20443;-91
2023/01/11 10:42:09;;;;;;;2.95;2.25;;;;;;;;;;5053245;28;20063;-91
2023/01/11 10:44:38;;;;;;;2.17;2.08;;;;;;;;;;5053127;28;20102;-91
2023/01/11 10:47:05;;;;;;;1.60;1.50;;;;;;;;;;5053008;28;20182;-90
2023/01/11 10:49:38;;;;;;;3.10;2.90;;;;;;;;;;5053175;28;20053;-91
2023/01/11 10:52:12;;;;;;;4.85;4.40;;;;;;;;;;5052875;28;20099;-91
2023/01/11 10:54:44;;;;;;;4.15;3.85;;;;;;;;;;5052664;28;20045;-91
2023/01/11 10:57:16;;;;;;;2.80;2.63;;;;;;;;;;5052317;28;20080;-89
2023/01/11 10:59:55;;;;;;;5.85;3.72;;;;;;;;;;5053041;28;20099;-89
2023/01/11 11:02:31;;;;;;;4.88;4.40;;;;;;;;;;5052700;28;20127;-89
2023/01/11 11:05:05;;;;;;;8.95;3.28;;;;;;;;;;5035897;28;20551;-90
2023/01/11 11:07:37;;;;;;;5.53;5.07;;;;;;;;;;5032896;28;20060;-90
2023/01/11 11:10:07;;;;;;;5.28;4.82;;;;;;;;;;5043919;28;20049;-90
2023/01/11 11:12:37;;;;;;;2.92;2.70;;;;;;;;;;5052848;28;20106;-91
2023/01/11 11:15:08;;;;;;;2.03;1.92;;;;;;;;;;5052493;28;20132;-90
2023/01/11 11:17:36;;;;;;;3.05;2.85;;;;;;;;;;5052598;28;20555;-90
2023/01/11 11:20:11;;;;;;;4.32;4.03;;;;;;;;;;5052762;28;20170;-90
2023/01/11 11:22:38;;;;;;;2.15;1.98;;;;;;;;;;5052525;28;20053;-90
2023/01/11 11:25:07;;;;;;;3.17;2.80;;;;;;;;;;5052596;28;20044;-89
2023/01/11 11:27:38;;;;;;;3.17;2.95;;;;;;;;;;5052706;28;20045;-90
2023/01/11 11:30:05;;;;;;;2.53;2.33;;;;;;;;;;5052707;28;20045;-90
2023/01/11 11:32:32;;;;;;;4.30;4.07;;;;;;;;;;5052692;28;20105;-90
2023/01/11 11:34:59;;;;;;;2.85;2.67;;;;;;;;;;5052585;28;20099;-90
2023/01/11 11:37:31;;;;;;;1.95;1.85;;;;;;;;;;5052788;28;20106;-90
2023/01/11 11:39:57;;;;;;;4.05;3.58;;;;;;;;;;5052552;28;20041;-90
2023/01/11 11:42:25;;;;;;;3.65;3.45;;;;;;;;;;5052503;28;20102;-90
2023/01/11 11:45:05;;;;;;;3.40;3.10;;;;;;;;;;5052513;28;20041;-90
2023/01/11 11:47:31;;;;;;;2.78;2.63;;;;;;;;;;5052323;28;20107;-90
2023/01/11 11:50:15;;;;;;;3.55;3.38;;;;;;;;;;5052700;28;20390;-90
2023/01/11 11:52:43;;;;;;;2.45;2.35;;;;;;;;;;5052217;28;20099;-90
2023/01/11 11:55:10;;;;;;;1.88;1.77;;;;;;;;;;5052407;28;20126;-90
2023/01/11 11:57:39;;;;;;;2.28;2.08;;;;;;;;;;5052637;28;20045;-90
2023/01/11 12:00:07;;;;;;;3.00;2.90;;;;;;;;;;5052526;28;20041;-90
2023/01/11 12:02:35;;;;;;;2.15;2.05;;;;;;;;;;5052323;28;20737;-90
2023/01/11 12:05:06;;;;;;;4.57;2.22;;;;;;;;;;5052226;28;20103;-89
2023/01/11 12:07:34;;;;;;;1.20;1.15;;;;;;;;;;5053413;28;20052;-90
2023/01/11 12:10:03;;;;;;;3.17;3.08;;;;;;;;;;5055941;28;20041;-90
2023/01/11 12:12:31;;;;;;;2.88;2.78;;;;;;;;;;5047609;28;20050;-90
2023/01/11 12:15:06;;;;;;;2.00;1.90;;;;;;;;;;5016285;28;20104;-90
2023/01/11 12:17:32;;;;;;;1.42;1.40;;;;;;;;;;5017069;28;20108;-90
2023/01/11 12:19:59;;;;;;;1.98;1.88;;;;;;;;;;5015940;28;20045;-90
2023/01/11 12:22:27;;;;;;;1.33;1.33;;;;;;;;;;5020385;28;20408;-90
2023/01/11 12:25:04;;;;;;;2.22;2.13;;;;;;;;;;5036026;28;20133;-89
2023/01/11 12:27:35;;;;;;;10.07;2.17;;;;;;;;;;5035693;28;20099;-90
2023/01/11 12:30:07;;;;;;;0.93;0.93;;;;;;;;;;5035841;28;20057;-90
2023/01/11 12:32:57;;;;;;;1.45;1.40;;;;;;;;;;5035751;28;20057;-89
2023/01/11 12:35:30;;;;;;;1.92;1.83;;;;;;;;;;5016151;28;20057;-90
2023/01/11 12:38:02;;;;;;;1.63;1.35;;;;;;;;;;5034990;28;20045;-90
2023/01/11 12:40:33;;;;;;;1.45;1.35;;;;;;;;;;5035373;28;20046;-89
2023/01/11 12:43:05;;;;;;;2.65;2.55;;;;;;;;;;5035271;28;20095;-90
2023/01/11 12:45:39;;;;;;;1.55;1.45;;;;;;;;;;5035426;28;20049;-90
2023/01/11 12:48:20;;;;;;;2.15;2.05;;;;;;;;;;5034985;28;20057;-90
2023/01/11 12:50:54;;;;;;;2.40;2.25;;;;;;;;;;5031553;28;20173;-90
2023/01/11 12:53:29;;;;;;;1.30;1.25;;;;;;;;;;5035167;28;20053;-90
2023/01/11 12:56:03;;;;;;;2.45;2.35;;;;;;;;;;5034944;28;20099;-90
2023/01/11 12:58:34;;;;;;;1.75;1.65;;;;;;;;;;5035281;28;20049;-89
2023/01/11 13:01:11;;;;;;;2.70;2.60;;;;;;;;;;5034802;28;20041;-89
2023/01/11 13:03:58;;;;;;;1.45;1.40;;;;;;;;;;5034966;28;20046;-89
2023/01/11 13:06:29;;;;;;;1.20;1.10;;;;;;;;;;5034970;28;20049;-89
2023/01/11 13:08:59;;;;;;;2.00;1.90;;;;;;;;;;5034516;28;20555;-89
2023/01/11 13:11:37;;;;;;;1.20;1.20;;;;;;;;;;5034864;28;20099;-89
2023/01/11 13:14:11;;;;;;;1.45;1.42;;;;;;;;;;5034600;28;20099;-89
2023/01/11 13:16:40;;;;;;;2.17;2.08;;;;;;;;;;5034454;28;20191;-89
2023/01/11 13:19:09;;;;;;;2.92;2.72;;;;;;;;;;5033711;28;20099;-88
2023/01/11 13:21:39;;;;;;;1.42;1.33;;;;;;;;;;5034062;28;20100;-88
2023/01/11 13:24:10;;;;;;;2.95;2.75;;;;;;;;;;5032248;28;20049;-89
2023/01/11 13:26:40;;;;;;;4.28;4.07;;;;;;;;;;5034080;28;20049;-88
2023/01/11 13:29:11;;;;;;;1.88;1.77;;;;;;;;;;5033910;28;20477;-89
2023/01/11 13:31:37;;;;;;;2.65;2.55;;;;;;;;;;5034080;28;20045;-89
2023/01/11 13:34:06;;;;;;;1.83;1.75;;;;;;;;;;5033871;28;20123;-88
2023/01/11 13:36:37;;;;;;;1.17;1.15;;;;;;;;;;5033796;28;20504;-87
2023/01/11 13:39:10;;;;;;;1.92;1.83;;;;;;;;;;5034094;28;20107;-87
2023/01/11 13:41:41;;;;;;;1.10;1.10;;;;;;;;;;5033693;28;20501;-87
2023/01/11 13:44:12;;;;;;;1.48;1.38;;;;;;;;;;5033424;28;20050;-87
2023/01/11 13:46:47;;;;;;;2.28;2.13;;;;;;;;;;5034012;28;20115;-88
2023/01/11 13:49:18;;;;;;;2.33;2.22;;;;;;;;;;5033592;28;20099;-88
2023/01/11 13:51:48;;;;;;;1.60;1.55;;;;;;;;;;5034173;28;20045;-87
2023/01/11 13:54:16;;;;;;;0.80;0.80;;;;;;;;;;5033953;28;20053;-87
2023/01/11 13:56:46;;;;;;;2.63;1.60;;;;;;;;;;5033287;28;20057;-88
2023/01/11 13:59:15;;;;;;;1.02;1.02;;;;;;;;;;5033880;28;20107;-87
2023/01/11 14:01:46;;;;;;;2.00;1.90;;;;;;;;;;5033382;28;20049;-87
2023/01/11 14:04:15;;;;;;;1.08;1.08;;;;;;;;;;5033335;28;20049;-87
2023/01/11 14:06:52;;;;;;;1.75;1.25;;;;;;;;;;5033421;28;20053;-87
2023/01/11 14:09:39;;;;;;;1.98;1.88;;;;;;;;;;5032992;28;20565;-87
2023/01/11 14:12:08;;;;;;;2.72;2.53;;;;;;;;;;5026862;28;20045;-87
2023/01/11 14:14:50;;;;;;;1.60;1.50;;;;;;;;;;5033242;28;20057;-87
2023/01/11 14:17:22;;;;;;;1.50;1.40;;;;;;;;;;5033205;28;20045;-88
2023/01/11 14:19:52;;;;;;;3.95;3.75;;;;;;;;;;5033050;28;20049;-87
2023/01/11 14:22:23;;;;;;;1.08;1.08;;;;;;;;;;5033122;28;20095;-87
2023/01/11 14:24:53;;;;;;;1.20;1.10;;;;;;;;;;5033564;28;20111;-87
2023/01/11 14:27:47;;;;;;;1.02;1.00;;;;;;;;;;5033326;28;20741;-88
2023/01/11 14:30:21;;;;;;;2.05;1.92;;;;;;;;;;4955045;28;20051;-87
2023/01/11 14:33:02;;;;;;;1.42;1.02;;;;;;;;;;4952837;28;20059;-88
2023/01/11 14:35:41;;;;;;;1.38;1.33;;;;;;;;;;4951037;29;20055;-88
2023/01/11 14:38:22;;;;;;;1.73;1.65;;;;;;;;;;4952776;29;20055;-87
2023/01/11 14:40:58;;;;;;;1.08;1.08;;;;;;;;;;4951028;29;20160;-88
2023/01/11 14:43:33;;;;;;;2.00;1.90;;;;;;;;;;4952801;29;20051;-87
2023/01/11 14:46:19;;;;;;;1.77;0.98;;;;;;;;;;4952691;29;20051;-87
2023/01/11 14:48:48;;;;;;;1.23;1.20;;;;;;;;;;4952747;29;20147;-88
2023/01/11 14:51:24;;;;;;;1.60;1.50;;;;;;;;;;4952604;29;20047;-89
2023/01/11 14:53:54;;;;;;;3.70;3.45;;;;;;;;;;4952644;29;20396;-88
2023/01/11 14:56:37;;;;;;;2.25;2.15;;;;;;;;;;4952367;28;20129;-88
2023/01/11 14:59:03;;;;;;;;;;;;;;;;;;4953068;29;20055;-88
2023/01/11 15:01:51;;;;;;;1.08;1.08;;;;;;;;;;4952557;29;19922;-88
2023/01/11 15:04:20;;;;;;;1.67;1.65;;;;;;;;;;4952186;29;20098;-88
2023/01/11 15:06:52;;;;;;;3.33;2.90;;;;;;;;;;5017554;28;20049;-88
2023/01/11 15:09:34;;;;;;;2.50;2.40;;;;;;;;;;5032222;28;20532;-88
2023/01/11 15:12:10;;;;;;;2.30;1.50;;;;;;;;;;5031675;28;20041;-87
2023/01/11 15:14:37;;;;;;;2.40;1.60;;;;;;;;;;5032521;28;20061;-88
2023/01/11 15:19:50;;;;;;;1.48;1.38;;;;;;;;;;5032074;28;20100;-87
2023/01/11 15:22:23;;;;;;;1.60;1.58;;;;;;;;;;5032144;28;20103;-88
2023/01/11 15:24:55;;;;;;;3.08;1.30;;;;;;;;;;5032130;28;20055;-86
2023/01/11 15:27:23;;;;;;;0.77;0.77;;;;;;;;;;5032552;28;20042;-88
2023/01/11 15:29:53;;;;;;;1.85;1.77;;;;;;;;;;5032256;28;20053;-86